Time;durP1;ratioP1;P1;durP2;ratioP2;P2;SDS_P1;SDS_P2;PMS_P1;PMS_P2;Temp;Humidity;BMP_temperature;BMP_pressure;BME280_temperature;BME280_humidity;BME280_pressure;Samples;Min_cycle;Max_cycle;Signal;HPM_P1;HPM_P2
2022/04/15 00:00:38;;;;;;;17.83;10.25;;;;;;;-140.79;100.00;63287.88;5045201;28;20025;-57
2022/04/15 00:03:05;;;;;;;16.67;9.25;;;;;;;-140.79;100.00;63287.88;5047925;28;20127;-56
2022/04/15 00:05:36;;;;;;;17.75;9.95;;;;;;;-140.79;100.00;63287.88;5066662;28;20024;-56
2022/04/15 00:08:10;;;;;;;16.08;10.07;;;;;;;-140.79;100.00;63287.88;5057608;28;20056;-57
2022/04/15 00:10:36;;;;;;;15.73;10.00;;;;;;;-140.79;100.00;63287.88;5060984;28;20035;-57
2022/04/15 00:13:05;;;;;;;16.15;9.90;;;;;;;-140.79;100.00;63287.88;5066132;28;20032;-58
2022/04/15 00:15:30;;;;;;;17.00;9.65;;;;;;;-140.79;100.00;63287.88;5043664;28;20121;-56
2022/04/15 00:17:56;;;;;;;16.85;9.95;;;;;;;-140.79;100.00;63287.88;5046447;28;20570;-58
2022/04/15 00:20:21;;;;;;;17.45;10.32;;;;;;;-140.79;100.00;63287.88;5046407;28;20047;-58
2022/04/15 00:22:47;;;;;;;15.93;9.52;;;;;;;-140.79;100.00;63287.88;5046007;28;20247;-57
2022/04/15 00:25:12;;;;;;;16.88;9.75;;;;;;;-140.79;100.00;63287.88;5048907;28;20414;-58
2022/04/15 00:27:38;;;;;;;16.00;9.75;;;;;;;-140.79;100.00;63287.88;5066242;28;20507;-58
2022/04/15 00:30:08;;;;;;;15.07;9.50;;;;;;;-140.79;100.00;63287.88;5066078;28;20432;-58
2022/04/15 00:32:33;;;;;;;17.05;9.88;;;;;;;-140.79;100.00;63287.88;5066390;28;20028;-58
2022/04/15 00:34:59;;;;;;;14.88;9.07;;;;;;;-140.79;100.00;63287.88;5064869;28;20051;-58
2022/04/15 00:37:24;;;;;;;15.82;10.02;;;;;;;-140.79;100.00;63287.88;5046213;28;20040;-58
2022/04/15 00:39:50;;;;;;;14.73;9.18;;;;;;;-140.79;100.00;63287.88;5046112;28;20025;-58
2022/04/15 00:42:16;;;;;;;14.27;9.60;;;;;;;-140.79;100.00;63287.88;5044485;28;20029;-56
2022/04/15 00:44:42;;;;;;;15.05;9.50;;;;;;;-140.79;100.00;63287.88;5045990;28;20079;-56
2022/04/15 00:47:08;;;;;;;15.07;9.73;;;;;;;-140.79;100.00;63287.88;5045731;28;20469;-58
2022/04/15 00:49:34;;;;;;;14.05;9.10;;;;;;;-140.79;100.00;63287.88;5045800;28;20031;-57
2022/04/15 00:52:00;;;;;;;15.07;9.38;;;;;;;-140.79;100.00;63287.88;5045683;28;20029;-57
2022/04/15 00:54:28;;;;;;;15.27;9.23;;;;;;;-140.79;100.00;63287.88;5044374;28;20094;-57
2022/04/15 00:56:54;;;;;;;13.15;8.30;;;;;;;-140.79;100.00;63287.88;5040575;28;20456;-57
2022/04/15 00:59:20;;;;;;;15.57;9.38;;;;;;;-140.79;100.00;63287.88;5027712;28;20033;-58
2022/04/15 01:01:45;;;;;;;15.02;9.10;;;;;;;-140.79;100.00;63287.88;5044239;28;20672;-57
2022/04/15 01:04:11;;;;;;;13.40;8.68;;;;;;;-140.79;100.00;63287.88;5044243;28;20504;-57
2022/04/15 01:06:36;;;;;;;13.60;9.00;;;;;;;-140.79;100.00;63287.88;5044121;28;20044;-56
2022/04/15 01:09:01;;;;;;;14.05;8.95;;;;;;;-140.79;100.00;63287.88;5028170;28;20056;-58
2022/04/15 01:11:27;;;;;;;13.80;8.73;;;;;;;-140.79;100.00;63287.88;5064061;28;20025;-58
2022/04/15 01:13:52;;;;;;;13.70;8.23;;;;;;;-140.79;100.00;63287.88;5065244;28;20399;-55
2022/04/15 01:16:18;;;;;;;14.07;9.32;;;;;;;-140.79;100.00;63287.88;5035571;28;20016;-57
2022/04/15 01:18:43;;;;;;;14.25;8.68;;;;;;;-140.79;100.00;63287.88;5024225;28;20028;-58
2022/04/15 01:21:09;;;;;;;12.32;8.48;;;;;;;-140.79;100.00;63287.88;5044334;28;20101;-58
2022/04/15 01:23:34;;;;;;;11.80;7.85;;;;;;;-140.79;100.00;63287.88;5043958;28;20610;-58
2022/04/15 01:25:59;;;;;;;12.85;8.52;;;;;;;-140.79;100.00;63287.88;5045091;28;20021;-56
2022/04/15 01:28:25;;;;;;;12.35;7.72;;;;;;;-140.79;100.00;63287.88;5044767;28;20049;-58
2022/04/15 01:30:50;;;;;;;13.65;8.70;;;;;;;-140.79;100.00;63287.88;5061286;28;20531;-58
2022/04/15 01:33:16;;;;;;;12.15;8.43;;;;;;;-140.79;100.00;63287.88;5045970;28;20125;-57
2022/04/15 01:35:42;;;;;;;12.52;8.32;;;;;;;-140.79;100.00;63287.88;5058231;28;20040;-58
2022/04/15 01:38:10;;;;;;;12.10;8.05;;;;;;;-140.79;100.00;63287.88;5044635;28;20048;-58
2022/04/15 01:40:35;;;;;;;12.73;7.97;;;;;;;-140.79;100.00;63287.88;5044996;28;20412;-57
2022/04/15 01:43:01;;;;;;;13.18;7.93;;;;;;;-140.79;100.00;63287.88;5044449;28;20041;-57
2022/04/15 01:45:26;;;;;;;11.73;7.57;;;;;;;-140.79;100.00;63287.88;5044682;28;20029;-56
2022/04/15 01:47:52;;;;;;;12.23;7.90;;;;;;;-140.79;100.00;63287.88;5044590;28;20038;-57
2022/04/15 01:50:17;;;;;;;12.07;8.07;;;;;;;-140.79;100.00;63287.88;5044688;28;20029;-57
2022/04/15 01:52:43;;;;;;;12.63;8.07;;;;;;;-140.79;100.00;63287.88;5043700;28;20082;-58
2022/04/15 01:55:08;;;;;;;11.25;7.63;;;;;;;-140.79;100.00;63287.88;5044683;28;20079;-58
2022/04/15 01:57:34;;;;;;;12.20;8.00;;;;;;;-140.79;100.00;63287.88;5044501;28;20048;-58
2022/04/15 01:59:59;;;;;;;11.55;7.50;;;;;;;-140.79;100.00;63287.88;5042604;28;20098;-57
2022/04/15 02:02:25;;;;;;;11.98;8.05;;;;;;;-140.79;100.00;63287.88;5043846;28;20029;-58
2022/04/15 02:04:50;;;;;;;11.63;7.82;;;;;;;-140.79;100.00;63287.88;5060573;28;20029;-56
2022/04/15 02:07:16;;;;;;;12.65;7.28;;;;;;;-140.79;100.00;63287.88;5061778;28;20028;-57
2022/04/15 02:09:41;;;;;;;12.40;7.30;;;;;;;-140.79;100.00;63287.88;5050644;28;20020;-57
2022/04/15 02:12:07;;;;;;;11.60;7.47;;;;;;;-140.79;100.00;63287.88;5064153;28;20028;-57
2022/04/15 02:14:32;;;;;;;12.85;7.55;;;;;;;-140.79;100.00;63287.88;5064264;28;20025;-58
2022/04/15 02:16:58;;;;;;;11.02;7.50;;;;;;;-140.79;100.00;63287.88;5046994;28;20515;-57
2022/04/15 02:19:24;;;;;;;10.88;7.28;;;;;;;-140.79;100.00;63287.88;5047868;28;20028;-56
2022/04/15 02:21:49;;;;;;;10.30;7.47;;;;;;;-140.79;100.00;63287.88;5056343;28;20074;-56
2022/04/15 02:24:15;;;;;;;12.25;7.68;;;;;;;-140.79;100.00;63287.88;5038915;28;20108;-58
2022/04/15 02:26:41;;;;;;;9.73;6.68;;;;;;;-140.79;100.00;63287.88;5037693;28;20041;-58
2022/04/15 02:29:07;;;;;;;10.57;7.65;;;;;;;-140.79;100.00;63287.88;5043401;28;20128;-58
2022/04/15 02:31:32;;;;;;;11.32;7.13;;;;;;;-140.79;100.00;63287.88;5043699;28;20044;-58
2022/04/15 02:33:58;;;;;;;10.20;6.90;;;;;;;-140.79;100.00;63287.88;5043725;28;20465;-57
2022/04/15 02:36:23;;;;;;;10.80;7.10;;;;;;;-140.79;100.00;63287.88;5043628;28;20423;-58
2022/04/15 02:38:48;;;;;;;10.90;7.25;;;;;;;-140.79;100.00;63287.88;5075435;28;20041;-58
2022/04/15 02:41:14;;;;;;;9.93;6.75;;;;;;;-140.79;100.00;63287.88;5042412;28;20037;-58
2022/04/15 02:43:39;;;;;;;10.68;6.85;;;;;;;-140.79;100.00;63287.88;5043658;28;20626;-58
2022/04/15 02:46:06;;;;;;;9.10;6.43;;;;;;;-140.79;100.00;63287.88;5047545;28;20486;-58
2022/04/15 02:48:32;;;;;;;10.20;6.63;;;;;;;-140.79;100.00;63287.88;5047584;28;20063;-58
2022/04/15 02:50:58;;;;;;;9.13;6.53;;;;;;;-140.79;100.00;63287.88;5047602;28;20488;-57
2022/04/15 02:53:23;;;;;;;10.13;6.15;;;;;;;-140.79;100.00;63287.88;5046335;28;20051;-58
2022/04/15 02:55:52;;;;;;;10.75;6.82;;;;;;;-140.79;100.00;63287.88;5047558;28;20849;-58
2022/04/15 02:58:18;;;;;;;11.30;7.03;;;;;;;-140.79;100.00;63287.88;5047577;28;20024;-57
2022/04/15 03:00:43;;;;;;;9.20;6.22;;;;;;;-140.79;100.00;63287.88;5047364;28;20021;-57
2022/04/15 03:03:09;;;;;;;11.68;6.65;;;;;;;-140.79;100.00;63287.88;5046085;28;20519;-58
2022/04/15 03:05:34;;;;;;;9.07;6.43;;;;;;;-140.79;100.00;63287.88;5047476;28;20051;-57
2022/04/15 03:08:00;;;;;;;8.95;5.97;;;;;;;-140.79;100.00;63287.88;5047153;28;20021;-56
2022/04/15 03:10:25;;;;;;;10.82;6.65;;;;;;;-140.79;100.00;63287.88;5059498;28;20031;-58
2022/04/15 03:12:51;;;;;;;8.77;6.57;;;;;;;-140.79;100.00;63287.88;5067095;28;20040;-56
2022/04/15 03:15:16;;;;;;;8.82;5.97;;;;;;;-140.79;100.00;63287.88;5064339;28;20040;-57
2022/04/15 03:17:42;;;;;;;9.35;6.32;;;;;;;-140.79;100.00;63287.88;5047326;28;20031;-56
2022/04/15 03:20:08;;;;;;;8.68;6.00;;;;;;;-140.79;100.00;63287.88;5047119;28;20040;-57
2022/04/15 03:22:37;;;;;;;8.25;6.10;;;;;;;-140.79;100.00;63287.88;5047129;28;20029;-56
2022/04/15 03:25:08;;;;;;;8.68;5.90;;;;;;;-140.79;100.00;63287.88;5047052;28;20075;-58
2022/04/15 03:27:34;;;;;;;8.50;5.88;;;;;;;-140.79;100.00;63287.88;5047040;28;20064;-58
2022/04/15 03:29:59;;;;;;;10.00;6.60;;;;;;;-140.79;100.00;63287.88;5047202;28;20044;-57
2022/04/15 03:32:25;;;;;;;8.00;5.90;;;;;;;-140.79;100.00;63287.88;5047312;28;20501;-57
2022/04/15 03:34:54;;;;;;;7.65;5.90;;;;;;;-140.79;100.00;63287.88;5046777;28;20594;-58
2022/04/15 03:37:19;;;;;;;9.82;6.35;;;;;;;-140.79;100.00;63287.88;5045736;28;20021;-57
2022/04/15 03:39:45;;;;;;;9.43;6.43;;;;;;;-140.79;100.00;63287.88;5045575;28;20409;-57
2022/04/15 03:42:10;;;;;;;7.95;5.70;;;;;;;-140.79;100.00;63287.88;5044733;28;20436;-56
2022/04/15 03:44:36;;;;;;;8.70;5.63;;;;;;;-140.79;100.00;63287.88;5044593;28;20459;-59
2022/04/15 03:47:03;;;;;;;9.27;5.95;;;;;;;-140.79;100.00;63287.88;5043944;28;20458;-57
2022/04/15 03:49:28;;;;;;;8.52;5.38;;;;;;;-140.79;100.00;63287.88;5043622;28;20116;-56
2022/04/15 03:51:53;;;;;;;7.72;5.20;;;;;;;-140.79;100.00;63287.88;5043635;28;20078;-56
2022/04/15 03:54:19;;;;;;;7.32;5.20;;;;;;;-140.79;100.00;63287.88;5043636;28;20025;-57
2022/04/15 03:56:46;;;;;;;8.15;5.57;;;;;;;-140.79;100.00;63287.88;5042890;28;20029;-57
2022/04/15 03:59:12;;;;;;;9.80;5.88;;;;;;;-140.79;100.00;63287.88;5043321;28;20587;-57
2022/04/15 04:01:37;;;;;;;8.90;5.90;;;;;;;-140.79;100.00;63287.88;5043314;28;20075;-58
2022/04/15 04:04:03;;;;;;;7.50;5.50;;;;;;;-140.79;100.00;63287.88;5044992;28;20045;-58
2022/04/15 04:06:28;;;;;;;8.77;5.68;;;;;;;-140.79;100.00;63287.88;5045310;28;20545;-57
2022/04/15 04:08:54;;;;;;;7.60;5.32;;;;;;;-140.79;100.00;63287.88;5045988;28;20415;-58
2022/04/15 04:11:20;;;;;;;7.82;5.38;;;;;;;-140.79;100.00;63287.88;5065646;28;20024;-59
2022/04/15 04:13:46;;;;;;;6.72;5.00;;;;;;;-140.79;100.00;63287.88;5062050;28;20096;-58
2022/04/15 04:16:16;;;;;;;7.15;5.15;;;;;;;-140.79;100.00;63287.88;5045367;28;20590;-58
2022/04/15 04:18:42;;;;;;;6.90;4.93;;;;;;;-140.79;100.00;63287.88;5040796;28;20550;-57
2022/04/15 04:21:07;;;;;;;6.93;4.82;;;;;;;-140.79;100.00;63287.88;5042043;28;20032;-58
2022/04/15 04:23:33;;;;;;;7.03;4.70;;;;;;;-140.79;100.00;63287.88;5044475;28;20040;-57
2022/04/15 04:25:59;;;;;;;7.55;5.18;;;;;;;-140.79;100.00;63287.88;5028627;28;20228;-59
2022/04/15 04:28:24;;;;;;;7.38;4.95;;;;;;;-140.79;100.00;63287.88;5043045;28;20498;-58
2022/04/15 04:30:50;;;;;;;7.13;4.80;;;;;;;-140.79;100.00;63287.88;5045369;28;20033;-57
2022/04/15 04:33:15;;;;;;;6.80;4.93;;;;;;;-140.79;100.00;63287.88;5044818;28;20087;-57
2022/04/15 04:35:41;;;;;;;7.43;4.75;;;;;;;-140.79;100.00;63287.88;5046142;28;20480;-58
2022/04/15 04:38:06;;;;;;;6.85;4.30;;;;;;;-140.79;100.00;63287.88;5045816;28;20047;-57
2022/04/15 04:40:32;;;;;;;6.72;4.40;;;;;;;-140.79;100.00;63287.88;5045889;28;20037;-58
2022/04/15 04:42:58;;;;;;;6.75;4.82;;;;;;;-140.79;100.00;63287.88;5044652;28;20036;-57
2022/04/15 04:45:23;;;;;;;7.30;4.80;;;;;;;-140.79;100.00;63287.88;5045842;28;20033;-58
2022/04/15 04:47:49;;;;;;;6.20;4.50;;;;;;;-140.79;100.00;63287.88;5045543;28;20061;-58
2022/04/15 04:50:14;;;;;;;6.55;4.38;;;;;;;-140.79;100.00;63287.88;5044043;28;20044;-58
2022/04/15 04:52:40;;;;;;;7.00;4.72;;;;;;;-140.79;100.00;63287.88;5043920;28;20029;-59
2022/04/15 04:55:06;;;;;;;7.53;5.00;;;;;;;-140.79;100.00;63287.88;5043446;28;20033;-57
2022/04/15 04:57:32;;;;;;;6.10;4.63;;;;;;;-140.79;100.00;63287.88;5042435;28;20108;-59
2022/04/15 04:59:57;;;;;;;6.15;4.07;;;;;;;-140.79;100.00;63287.88;5043682;28;20095;-60
2022/04/15 05:02:23;;;;;;;6.55;4.88;;;;;;;-140.79;100.00;63287.88;5043788;28;20116;-58
2022/04/15 05:04:48;;;;;;;6.78;4.30;;;;;;;-140.79;100.00;63287.88;5043766;28;20017;-58
2022/04/15 05:07:14;;;;;;;6.60;4.40;;;;;;;-140.79;100.00;63287.88;5043582;28;20017;-57
2022/04/15 05:09:42;;;;;;;6.43;4.50;;;;;;;-140.79;100.00;63287.88;5044146;28;20485;-57
2022/04/15 05:12:09;;;;;;;7.53;4.50;;;;;;;-140.79;100.00;63287.88;5043822;28;20041;-58
2022/04/15 05:14:34;;;;;;;7.85;4.72;;;;;;;-140.79;100.00;63287.88;5042540;28;20029;-55
2022/04/15 05:17:00;;;;;;;7.65;4.47;;;;;;;-140.79;100.00;63287.88;5043483;28;20576;-57
2022/04/15 05:19:25;;;;;;;7.95;4.53;;;;;;;-140.79;100.00;63287.88;5044997;28;20393;-57
2022/04/15 05:21:52;;;;;;;7.93;4.30;;;;;;;-140.79;100.00;63287.88;5045091;28;20527;-57
2022/04/15 05:24:18;;;;;;;7.72;4.63;;;;;;;-140.79;100.00;63287.88;5044880;28;20077;-57
2022/04/15 05:26:43;;;;;;;5.72;3.90;;;;;;;-140.79;100.00;63287.88;5044818;28;20025;-58
2022/04/15 05:29:09;;;;;;;6.38;4.20;;;;;;;-140.79;100.00;63287.88;5044392;28;20393;-57
2022/04/15 05:31:35;;;;;;;8.15;4.30;;;;;;;-140.79;100.00;63287.88;5044489;28;20028;-58
2022/04/15 05:34:00;;;;;;;7.32;4.30;;;;;;;-140.79;100.00;63287.88;5044702;28;20024;-58
2022/04/15 05:36:26;;;;;;;5.93;4.00;;;;;;;-140.79;100.00;63287.88;5044525;28;20044;-57
2022/04/15 05:38:51;;;;;;;5.63;3.90;;;;;;;-140.79;100.00;63287.88;5043295;28;20055;-58
2022/04/15 05:41:17;;;;;;;6.05;4.00;;;;;;;-140.79;100.00;63287.88;5045916;28;20472;-59
2022/04/15 05:43:43;;;;;;;6.07;3.63;;;;;;;-140.79;100.00;63287.88;5044493;28;20033;-58
2022/04/15 05:46:09;;;;;;;7.05;4.13;;;;;;;-140.79;100.00;63287.88;5044194;28;20451;-56
2022/04/15 05:48:34;;;;;;;6.65;4.20;;;;;;;-140.79;100.00;63287.88;5044001;28;20475;-57
2022/04/15 05:51:00;;;;;;;6.85;4.15;;;;;;;-140.79;100.00;63287.88;5044311;28;20060;-57
2022/04/15 05:53:25;;;;;;;6.75;4.03;;;;;;;-140.79;100.00;63287.88;5044173;28;20397;-57
2022/04/15 05:55:51;;;;;;;8.52;4.00;;;;;;;-140.79;100.00;63287.88;5044128;28;20498;-57
2022/04/15 05:58:16;;;;;;;5.15;3.75;;;;;;;-140.79;100.00;63287.88;5044225;28;20033;-56
2022/04/15 06:00:41;;;;;;;5.78;3.92;;;;;;;-140.79;100.00;63287.88;5044165;28;20582;-56
2022/04/15 06:03:07;;;;;;;6.35;3.97;;;;;;;-140.79;100.00;63287.88;5043935;28;20405;-56
2022/04/15 06:05:32;;;;;;;4.57;3.72;;;;;;;-140.79;100.00;63287.88;5044017;28;20431;-57
2022/04/15 06:07:58;;;;;;;5.78;3.97;;;;;;;-140.79;100.00;63287.88;5043994;28;20353;-58
2022/04/15 06:10:23;;;;;;;5.18;3.60;;;;;;;-140.79;100.00;63287.88;5044511;28;20407;-58
2022/04/15 06:12:57;;;;;;;5.10;3.50;;;;;;;-140.79;100.00;63287.88;5045430;28;20048;-57
2022/04/15 06:15:30;;;;;;;5.75;3.88;;;;;;;-140.79;100.00;63287.88;5044949;28;20404;-56
2022/04/15 06:17:56;;;;;;;6.18;3.80;;;;;;;-140.79;100.00;63287.88;5044566;28;20082;-56
2022/04/15 06:20:21;;;;;;;5.53;3.80;;;;;;;-140.79;100.00;63287.88;5043617;28;20041;-56
2022/04/15 06:22:47;;;;;;;6.13;3.60;;;;;;;-140.79;100.00;63287.88;5059338;28;20458;-57
2022/04/15 06:25:12;;;;;;;5.47;3.67;;;;;;;-140.79;100.00;63287.88;5043663;28;20569;-56
2022/04/15 06:27:38;;;;;;;5.60;3.78;;;;;;;-140.79;100.00;63287.88;5043616;28;20045;-57
2022/04/15 06:30:07;;;;;;;6.38;3.72;;;;;;;-140.79;100.00;63287.88;5043694;28;20048;-55
2022/04/15 06:32:36;;;;;;;6.32;3.97;;;;;;;-140.79;100.00;63287.88;5042065;28;20041;-56
2022/04/15 06:35:01;;;;;;;4.78;3.72;;;;;;;-140.79;100.00;63287.88;5043156;28;20056;-56
2022/04/15 06:37:27;;;;;;;5.40;3.60;;;;;;;-140.79;100.00;63287.88;5040623;28;20659;-57
2022/04/15 06:39:52;;;;;;;6.05;3.50;;;;;;;-140.79;100.00;63287.88;5043311;28;20059;-58
2022/04/15 06:42:22;;;;;;;5.25;3.85;;;;;;;-140.79;100.00;63287.88;5043296;28;20021;-58
2022/04/15 06:44:48;;;;;;;5.03;3.60;;;;;;;-140.79;100.00;63287.88;5043304;28;20025;-57
2022/04/15 06:47:13;;;;;;;5.05;3.33;;;;;;;-140.79;100.00;63287.88;5041616;28;20040;-57
2022/04/15 06:49:38;;;;;;;5.32;3.47;;;;;;;-140.79;100.00;63287.88;5043203;28;20052;-57
2022/04/15 06:52:04;;;;;;;4.20;3.10;;;;;;;-140.79;100.00;63287.88;5043176;28;20036;-57
2022/04/15 06:54:30;;;;;;;5.25;3.55;;;;;;;-140.79;100.00;63287.88;5043249;28;20127;-56
2022/04/15 06:56:55;;;;;;;4.95;3.78;;;;;;;-140.79;100.00;63287.88;5042287;28;20025;-57
2022/04/15 06:59:21;;;;;;;4.68;3.33;;;;;;;-140.79;100.00;63287.88;5059036;28;20441;-56
2022/04/15 07:01:47;;;;;;;5.75;3.80;;;;;;;-140.79;100.00;63287.88;5044052;28;20056;-57
2022/04/15 07:04:13;;;;;;;4.07;3.15;;;;;;;-140.79;100.00;63287.88;5044109;28;20071;-56
2022/04/15 07:06:38;;;;;;;4.95;3.58;;;;;;;-140.79;100.00;63287.88;5044182;28;20025;-57
2022/04/15 07:09:04;;;;;;;6.95;3.95;;;;;;;-140.79;100.00;63287.88;5043955;28;20044;-57
2022/04/15 07:11:29;;;;;;;4.85;3.28;;;;;;;-140.79;100.00;63287.88;5043690;28;20040;-57
2022/04/15 07:13:54;;;;;;;5.15;3.42;;;;;;;-140.79;100.00;63287.88;5042016;28;20032;-56
2022/04/15 07:16:20;;;;;;;4.85;3.50;;;;;;;-140.79;100.00;63287.88;5042625;28;20029;-57
2022/04/15 07:18:46;;;;;;;4.47;3.50;;;;;;;-140.79;100.00;63287.88;5042737;28;20075;-57
2022/04/15 07:21:11;;;;;;;4.82;3.58;;;;;;;-140.79;100.00;63287.88;5041287;28;20862;-57
2022/04/15 07:23:37;;;;;;;5.25;3.70;;;;;;;-140.79;100.00;63287.88;5043974;28;20110;-59
2022/04/15 07:26:03;;;;;;;5.35;3.78;;;;;;;-140.79;100.00;63287.88;5043902;28;20033;-57
2022/04/15 07:28:28;;;;;;;4.85;3.30;;;;;;;-140.79;100.00;63287.88;5042356;28;20064;-58
2022/04/15 07:30:53;;;;;;;4.65;3.58;;;;;;;-140.79;100.00;63287.88;5041532;28;20025;-57
2022/04/15 07:33:19;;;;;;;4.70;3.30;;;;;;;-140.79;100.00;63287.88;5045212;28;20032;-56
2022/04/15 07:35:45;;;;;;;4.85;3.30;;;;;;;-140.79;100.00;63287.88;5045595;28;20132;-57
2022/04/15 07:38:11;;;;;;;4.95;3.47;;;;;;;-140.79;100.00;63287.88;5045645;28;20104;-57
2022/04/15 07:40:36;;;;;;;4.65;3.30;;;;;;;-140.79;100.00;63287.88;5045911;28;20017;-58
2022/04/15 07:43:02;;;;;;;4.30;3.33;;;;;;;-140.79;100.00;63287.88;5046095;28;20032;-58
2022/04/15 07:45:27;;;;;;;5.10;3.88;;;;;;;-140.79;100.00;63287.88;5045815;28;20024;-58
2022/04/15 07:47:53;;;;;;;5.07;3.30;;;;;;;-140.79;100.00;63287.88;5046025;28;20215;-58
2022/04/15 07:50:25;;;;;;;4.35;3.22;;;;;;;-140.79;100.00;63287.88;5045700;28;20557;-57
2022/04/15 07:52:55;;;;;;;4.30;3.17;;;;;;;-140.79;100.00;63287.88;5045918;28;20021;-57
2022/04/15 07:55:20;;;;;;;5.10;3.60;;;;;;;-140.79;100.00;63287.88;5044522;28;20040;-57
2022/04/15 07:57:46;;;;;;;5.20;3.65;;;;;;;-140.79;100.00;63287.88;5045672;28;20033;-57
2022/04/15 08:00:12;;;;;;;4.68;3.55;;;;;;;-140.79;100.00;63287.88;5045303;28;20029;-58
2022/04/15 08:02:37;;;;;;;4.68;3.35;;;;;;;-140.79;100.00;63287.88;5045553;28;20036;-56
2022/04/15 08:05:04;;;;;;;4.55;3.20;;;;;;;-140.79;100.00;63287.88;5045646;28;20048;-58
2022/04/15 08:07:29;;;;;;;5.88;3.70;;;;;;;-140.79;100.00;63287.88;5045463;28;20021;-58
2022/04/15 08:09:55;;;;;;;5.00;3.40;;;;;;;-140.79;100.00;63287.88;5044929;28;20032;-58
2022/04/15 08:12:20;;;;;;;4.38;3.33;;;;;;;-140.79;100.00;63287.88;5044627;28;20036;-58
2022/04/15 08:14:46;;;;;;;4.32;3.30;;;;;;;-140.79;100.00;63287.88;5045266;28;20033;-59
2022/04/15 08:17:11;;;;;;;5.25;3.35;;;;;;;-140.79;100.00;63287.88;5045288;28;20079;-59
2022/04/15 08:19:37;;;;;;;5.03;3.53;;;;;;;-140.79;100.00;63287.88;5045206;28;20028;-59
2022/04/15 08:22:03;;;;;;;5.60;3.70;;;;;;;-140.79;100.00;63287.88;5045200;28;20020;-59
2022/04/15 08:24:28;;;;;;;5.45;3.45;;;;;;;-140.79;100.00;63287.88;5060500;28;20424;-59
2022/04/15 08:26:56;;;;;;;4.68;3.40;;;;;;;-140.79;100.00;63287.88;5045010;28;20028;-58
2022/04/15 08:29:21;;;;;;;4.35;3.28;;;;;;;-140.79;100.00;63287.88;5044853;28;20060;-57
2022/04/15 08:31:47;;;;;;;4.65;3.55;;;;;;;-140.79;100.00;63287.88;5045074;28;20424;-59
2022/04/15 08:34:12;;;;;;;4.80;3.50;;;;;;;-140.79;100.00;63287.88;5046270;28;20036;-59
2022/04/15 08:36:38;;;;;;;4.70;3.30;;;;;;;-140.79;100.00;63287.88;5044900;28;20036;-60
2022/04/15 08:39:05;;;;;;;4.55;3.20;;;;;;;-140.79;100.00;63287.88;5046088;28;20500;-59
2022/04/15 08:41:31;;;;;;;6.00;3.20;;;;;;;-140.79;100.00;63287.88;5046729;28;20040;-59
2022/04/15 08:43:56;;;;;;;4.78;3.45;;;;;;;-140.79;100.00;63287.88;5028410;28;20040;-59
2022/04/15 08:46:23;;;;;;;4.30;3.17;;;;;;;-140.79;100.00;63287.88;5028402;28;20033;-59
2022/04/15 08:48:48;;;;;;;4.43;3.25;;;;;;;-140.79;100.00;63287.88;5046243;28;20033;-59
2022/04/15 08:51:14;;;;;;;4.35;3.40;;;;;;;-140.79;100.00;63287.88;5044603;28;20064;-57
2022/04/15 08:53:39;;;;;;;5.03;3.50;;;;;;;-140.79;100.00;63287.88;5028328;28;20043;-60
2022/04/15 08:56:05;;;;;;;5.28;3.67;;;;;;;-140.79;100.00;63287.88;5037661;28;20052;-56
2022/04/15 08:58:30;;;;;;;4.95;3.35;;;;;;;-140.79;100.00;63287.88;5046188;28;20076;-58
2022/04/15 09:00:56;;;;;;;5.07;3.45;;;;;;;-140.79;100.00;63287.88;5045949;28;20033;-59
2022/04/15 09:03:21;;;;;;;4.32;3.53;;;;;;;-140.79;100.00;63287.88;5045367;28;20021;-57
2022/04/15 09:05:53;;;;;;;5.47;3.40;;;;;;;-140.79;100.00;63287.88;5045728;28;20052;-57
2022/04/15 09:08:19;;;;;;;4.70;3.20;;;;;;;-140.79;100.00;63287.88;5045969;28;20100;-59
2022/04/15 09:10:53;;;;;;;4.85;3.53;;;;;;;-140.79;100.00;63287.88;5044107;28;20025;-58
2022/04/15 09:13:22;;;;;;;4.88;3.40;;;;;;;-140.79;100.00;63287.88;5060729;28;20025;-58
2022/04/15 09:15:47;;;;;;;4.00;3.30;;;;;;;-140.79;100.00;63287.88;5044892;28;20130;-57
2022/04/15 09:18:32;;;;;;;5.10;3.40;;;;;;;-140.79;100.00;63287.88;5045765;28;20369;-57
2022/04/15 09:21:19;;;;;;;4.80;3.35;;;;;;;-140.79;100.00;63287.88;5045960;28;20029;-58
2022/04/15 09:23:49;;;;;;;4.47;3.30;;;;;;;-140.79;100.00;63287.88;5036008;28;20471;-59
2022/04/15 09:26:14;;;;;;;5.05;3.42;;;;;;;-140.79;100.00;63287.88;5045822;28;20087;-59
2022/04/15 09:28:40;;;;;;;4.90;3.30;;;;;;;-140.79;100.00;63287.88;5045335;28;20049;-55
2022/04/15 09:31:13;;;;;;;5.07;3.20;;;;;;;-140.79;100.00;63287.88;5045723;28;20142;-57
2022/04/15 09:33:38;;;;;;;4.80;3.50;;;;;;;-140.79;100.00;63287.88;5044374;28;20472;-57
2022/04/15 09:36:04;;;;;;;4.25;3.20;;;;;;;-140.79;100.00;63287.88;5045480;28;20025;-58
2022/04/15 09:38:49;;;;;;;4.43;3.22;;;;;;;-140.79;100.00;63287.88;5045479;28;20036;-59
2022/04/15 09:41:21;;;;;;;5.70;3.60;;;;;;;-140.79;100.00;63287.88;5042920;28;20029;-57
2022/04/15 09:43:53;;;;;;;5.38;3.47;;;;;;;-140.79;100.00;63287.88;5044177;28;20049;-58
2022/04/15 09:46:19;;;;;;;4.32;3.17;;;;;;;-140.79;100.00;63287.88;5042487;28;20090;-57
2022/04/15 09:49:08;;;;;;;3.58;3.08;;;;;;;-140.79;100.00;63287.88;5042684;28;20045;-57
2022/04/15 09:51:40;;;;;;;4.45;3.17;;;;;;;-140.79;100.00;63287.88;5040429;28;20082;-57
2022/04/15 09:54:06;;;;;;;4.97;3.40;;;;;;;-140.79;100.00;63287.88;5041193;28;20459;-57
2022/04/15 09:56:33;;;;;;;4.00;2.90;;;;;;;-140.79;100.00;63287.88;5043153;28;20108;-57
2022/04/15 09:59:00;;;;;;;4.65;3.30;;;;;;;-140.79;100.00;63287.88;5043154;28;20029;-58
2022/04/15 10:01:26;;;;;;;4.97;3.50;;;;;;;-140.79;100.00;63287.88;5040776;28;20024;-57
2022/04/15 10:03:52;;;;;;;4.15;3.00;;;;;;;-140.79;100.00;63287.88;5011153;28;20116;-57
2022/04/15 10:06:17;;;;;;;4.05;2.90;;;;;;;-140.79;100.00;63287.88;5041924;28;20033;-58
2022/04/15 10:08:43;;;;;;;4.45;3.10;;;;;;;-140.79;100.00;63287.88;5041548;28;20025;-57
2022/04/15 10:11:08;;;;;;;3.67;2.80;;;;;;;-140.79;100.00;63287.88;5057869;28;20035;-58
2022/04/15 10:13:35;;;;;;;3.95;2.78;;;;;;;-140.79;100.00;63287.88;5042935;28;20534;-58
2022/04/15 10:16:00;;;;;;;3.83;2.92;;;;;;;-140.79;100.00;63287.88;5041895;28;20089;-57
2022/04/15 10:18:26;;;;;;;3.90;2.90;;;;;;;-140.79;100.00;63287.88;5042848;28;20095;-57
2022/04/15 10:20:51;;;;;;;4.53;3.20;;;;;;;-140.79;100.00;63287.88;5042894;28;20033;-56
2022/04/15 10:23:17;;;;;;;4.55;2.70;;;;;;;-140.79;100.00;63287.88;5043675;28;20512;-57
2022/04/15 10:25:43;;;;;;;4.60;3.30;;;;;;;-140.79;100.00;63287.88;5038867;28;20033;-56
2022/04/15 10:28:19;;;;;;;4.95;3.30;;;;;;;-140.79;100.00;63287.88;5039945;28;20046;-57
2022/04/15 10:31:15;;;;;;;3.30;2.70;;;;;;;-140.79;100.00;63287.88;5038121;28;20404;-57
2022/04/15 10:33:41;;;;;;;4.53;3.13;;;;;;;-140.79;100.00;63287.88;5044621;28;20722;-58
2022/04/15 10:36:12;;;;;;;3.72;2.85;;;;;;;-140.79;100.00;63287.88;5044889;28;20114;-57
2022/04/15 10:39:03;;;;;;;4.55;3.03;;;;;;;-140.79;100.00;63287.88;5045096;28;20450;-57
2022/04/15 10:41:29;;;;;;;4.53;2.85;;;;;;;-140.79;100.00;63287.88;5059492;28;20043;-56
2022/04/15 10:43:58;;;;;;;3.97;2.85;;;;;;;-140.79;100.00;63287.88;5043336;28;20021;-57
2022/04/15 10:46:30;;;;;;;3.85;2.67;;;;;;;-140.79;100.00;63287.88;5043049;28;20033;-58
2022/04/15 10:48:59;;;;;;;4.07;2.83;;;;;;;-140.79;100.00;63287.88;5044341;28;20115;-56
2022/04/15 10:51:27;;;;;;;4.70;3.00;;;;;;;-140.79;100.00;63287.88;5043749;28;20098;-57
2022/04/15 10:53:53;;;;;;;4.18;2.83;;;;;;;-140.79;100.00;63287.88;5044307;28;20013;-57
2022/04/15 10:56:20;;;;;;;5.93;3.10;;;;;;;-140.79;100.00;63287.88;5044390;28;20103;-56
2022/04/15 11:01:13;;;;;;;4.35;2.97;;;;;;;-140.79;100.00;63287.88;5043643;28;20325;-57
2022/04/15 11:01:32;;;;;;;5.38;3.00;;;;;;;-140.79;100.00;63287.88;5042876;28;20035;-57
2022/04/15 11:04:02;;;;;;;4.65;2.85;;;;;;;-140.79;100.00;63287.88;5042028;28;20017;-57